Time;durP1;ratioP1;P1;durP2;ratioP2;P2;SDS_P1;SDS_P2;PMS_P1;PMS_P2;Temp;Humidity;BMP_temperature;BMP_pressure;BME280_temperature;BME280_humidity;BME280_pressure;Samples;Min_cycle;Max_cycle;Signal;HPM_P1;HPM_P2
2022/08/17 00:01:34;;;;;;;20.27;17.40;;;23.90;81.10;;;;;;6170500;23;20163;-89
2022/08/17 00:04:05;;;;;;;18.70;16.60;;;23.90;81.10;;;;;;6121039;23;20496;-89
2022/08/17 00:06:36;;;;;;;19.75;17.65;;;23.90;81.10;;;;;;6121364;23;20150;-89
2022/08/17 00:09:02;;;;;;;17.67;15.82;;;23.90;81.10;;;;;;6120656;23;20215;-90
2022/08/17 00:11:31;;;;;;;19.13;16.95;;;23.90;81.20;;;;;;6195722;23;20219;-89
2022/08/17 00:13:59;;;;;;;20.02;17.50;;;23.90;81.20;;;;;;6196662;23;20600;-89
2022/08/17 00:16:31;;;;;;;20.35;17.67;;;23.90;81.20;;;;;;6196043;23;20252;-87
2022/08/17 00:19:03;;;;;;;20.25;17.60;;;23.90;81.20;;;;;;6172862;23;20149;-90
2022/08/17 00:21:30;;;;;;;19.50;17.40;;;23.90;81.20;;;;;;6171738;23;20484;-89
2022/08/17 00:24:01;;;;;;;18.63;16.52;;;23.90;81.20;;;;;;6121010;23;20206;-88
2022/08/17 00:26:32;;;;;;;19.80;17.45;;;23.90;81.20;;;;;;6135701;23;20241;-89
2022/08/17 00:28:58;;;;;;;18.90;16.90;;;23.90;81.30;;;;;;6134721;23;20290;-90
2022/08/17 00:31:26;;;;;;;19.17;17.15;;;23.90;81.20;;;;;;6072175;23;20319;-88
2022/08/17 00:33:55;;;;;;;19.88;16.80;;;23.80;81.20;;;;;;6071786;23;20153;-89
2022/08/17 00:36:26;;;;;;;19.52;17.17;;;23.90;81.40;;;;;;5962659;23;20162;-89
2022/08/17 00:39:00;;;;;;;18.42;16.42;;;23.90;81.40;;;;;;5987086;23;20587;-89
2022/08/17 00:41:27;;;;;;;19.50;17.38;;;23.90;81.50;;;;;;6008900;23;20159;-87
2022/08/17 00:44:01;;;;;;;19.83;17.08;;;23.80;81.50;;;;;;5981262;24;20509;-88
2022/08/17 00:46:31;;;;;;;20.67;17.60;;;23.90;81.50;;;;;;5959407;24;20167;-90
2022/08/17 00:48:59;;;;;;;19.30;17.00;;;23.80;81.50;;;;;;5958842;24;20219;-88
2022/08/17 00:51:38;;;;;;;19.20;17.05;;;23.80;81.50;;;;;;5926265;24;20164;-88
2022/08/17 00:54:13;;;;;;;20.02;17.10;;;23.90;81.60;;;;;;5908892;24;20632;-88
2022/08/17 00:56:48;;;;;;;19.00;16.65;;;23.80;81.50;;;;;;5952843;24;20156;-88
2022/08/17 00:59:16;;;;;;;21.02;17.95;;;23.80;81.50;;;;;;5953670;24;20156;-90
2022/08/17 01:01:55;;;;;;;20.08;17.52;;;23.80;81.60;;;;;;5930836;24;20246;-88
2022/08/17 01:04:26;;;;;;;19.55;17.42;;;23.80;81.50;;;;;;5909675;24;20160;-89
2022/08/17 01:07:03;;;;;;;19.98;17.00;;;23.80;81.60;;;;;;5930734;24;20160;-89
2022/08/17 01:09:29;;;;;;;18.60;16.40;;;23.80;81.60;;;;;;5898364;24;20250;-88
2022/08/17 01:12:05;;;;;;;19.33;17.10;;;23.80;81.60;;;;;;5871352;24;20162;-90
2022/08/17 01:14:36;;;;;;;19.30;17.20;;;23.80;81.60;;;;;;6004681;23;20153;-89
2022/08/17 01:17:03;;;;;;;19.48;17.35;;;23.80;81.50;;;;;;6015607;23;20181;-88
2022/08/17 01:19:30;;;;;;;19.55;17.38;;;23.80;81.70;;;;;;6015050;23;20629;-89
2022/08/17 01:22:05;;;;;;;19.23;16.95;;;23.80;81.60;;;;;;6022030;23;20308;-90
2022/08/17 01:24:36;;;;;;;19.15;17.15;;;23.80;81.80;;;;;;6041790;23;20203;-89
2022/08/17 01:27:02;;;;;;;20.48;17.75;;;23.80;81.70;;;;;;6019032;23;20157;-89
2022/08/17 01:29:32;;;;;;;21.58;18.40;;;23.80;81.80;;;;;;6019134;23;20230;-89
2022/08/17 01:32:02;;;;;;;20.92;17.63;;;23.80;81.80;;;;;;5977858;23;20159;-90
2022/08/17 01:34:30;;;;;;;20.15;17.95;;;23.80;82.60;;;;;;6062006;23;20155;-88
2022/08/17 01:37:07;;;;;;;19.40;17.40;;;23.80;81.80;;;;;;6047025;23;20160;-88
2022/08/17 01:39:46;;;;;;;19.50;17.40;;;23.80;81.80;;;;;;5963493;23;20272;-89
2022/08/17 01:42:28;;;;;;;19.13;16.55;;;23.80;81.90;;;;;;5970518;23;20150;-89
2022/08/17 01:45:00;;;;;;;19.75;17.33;;;23.80;81.90;;;;;;6014281;23;20165;-89
2022/08/17 01:47:26;;;;;;;19.63;17.52;;;23.80;81.90;;;;;;5989149;23;20162;-89
2022/08/17 01:50:10;;;;;;;19.77;17.00;;;23.70;81.90;;;;;;6037605;23;20237;-89
2022/08/17 01:52:42;;;;;;;19.02;16.58;;;23.80;82.00;;;;;;6015815;23;20428;-88
2022/08/17 01:55:13;;;;;;;19.38;16.83;;;23.80;81.90;;;;;;5989709;23;20158;-90
2022/08/17 01:57:46;;;;;;;19.90;17.45;;;23.70;81.90;;;;;;6035361;23;20492;-90
2022/08/17 02:00:15;;;;;;;20.65;17.98;;;23.80;82.00;;;;;;6047778;23;20593;-91
2022/08/17 02:02:44;;;;;;;19.60;17.50;;;23.80;82.00;;;;;;6023601;23;20188;-88
2022/08/17 02:05:15;;;;;;;20.52;18.15;;;23.70;82.00;;;;;;6027864;23;20163;-89
2022/08/17 02:07:45;;;;;;;19.80;17.60;;;23.80;81.90;;;;;;6052773;23;20461;-89
2022/08/17 02:10:18;;;;;;;19.17;17.00;;;23.70;81.90;;;;;;6074446;23;20158;-87
2022/08/17 02:12:52;;;;;;;20.17;17.33;;;23.70;82.00;;;;;;6110266;23;20345;-90
2022/08/17 02:15:19;;;;;;;19.83;17.00;;;23.80;82.00;;;;;;6111659;23;20158;-89
2022/08/17 02:17:50;;;;;;;19.48;17.05;;;23.70;81.90;;;;;;6075527;23;20603;-88
2022/08/17 02:20:27;;;;;;;19.48;17.17;;;23.70;81.90;;;;;;6027906;23;20682;-88
2022/08/17 02:22:55;;;;;;;18.95;16.33;;;23.80;81.90;;;;;;6037578;23;20196;-89
2022/08/17 02:25:22;;;;;;;20.40;17.35;;;23.80;82.00;;;;;;6100340;23;20176;-89
2022/08/17 02:27:56;;;;;;;19.77;17.67;;;23.70;81.90;;;;;;6027464;23;20220;-89
2022/08/17 02:30:32;;;;;;;18.83;16.65;;;23.70;82.00;;;;;;6020414;23;20197;-89
2022/08/17 02:33:07;;;;;;;18.65;16.45;;;23.70;82.00;;;;;;6008625;23;20155;-89
2022/08/17 02:35:38;;;;;;;19.35;17.08;;;23.70;82.00;;;;;;5985524;23;20224;-90
2022/08/17 02:38:07;;;;;;;19.90;17.17;;;23.70;82.00;;;;;;6066135;23;20157;-89
2022/08/17 02:40:33;;;;;;;21.55;17.98;;;23.70;82.10;;;;;;6041309;23;20164;-89
2022/08/17 02:43:09;;;;;;;;;;;;;;;;;;;;;
2022/08/17 02:45:38;;;;;;;18.73;16.65;;;23.70;82.10;;;;;;5997574;23;20237;-89
2022/08/17 02:48:07;;;;;;;20.48;17.65;;;23.70;82.00;;;;;;6043229;23;20191;-88
2022/08/17 02:50:35;;;;;;;19.80;17.30;;;23.70;82.10;;;;;;6042103;23;20154;-88
2022/08/17 02:53:05;;;;;;;19.83;17.50;;;23.60;82.10;;;;;;6041870;23;20153;-89
2022/08/17 02:55:40;;;;;;;21.35;17.88;;;23.70;82.20;;;;;;6051944;23;20148;-87
2022/08/17 02:58:13;;;;;;;19.98;17.35;;;23.60;82.10;;;;;;6065845;23;20164;-88
2022/08/17 03:00:46;;;;;;;19.55;17.33;;;23.70;82.20;;;;;;6050181;23;20316;-87
2022/08/17 03:03:18;;;;;;;18.73;16.73;;;23.70;82.20;;;;;;6052080;23;20160;-88
2022/08/17 03:05:46;;;;;;;19.48;17.05;;;23.70;82.20;;;;;;6010604;23;20184;-88
2022/08/17 03:08:15;;;;;;;19.52;17.17;;;23.70;82.30;;;;;;5987864;23;20323;-89
2022/08/17 03:10:44;;;;;;;20.45;17.63;;;23.70;82.40;;;;;;5904909;24;20176;-89
2022/08/17 03:13:14;;;;;;;18.77;16.77;;;23.70;82.40;;;;;;5926431;24;20160;-89
2022/08/17 03:15:46;;;;;;;19.58;17.42;;;23.70;82.40;;;;;;5926063;24;20157;-89
2022/08/17 03:18:15;;;;;;;19.52;16.95;;;23.70;82.30;;;;;;5927025;24;20223;-88
2022/08/17 03:20:51;;;;;;;19.05;16.95;;;23.70;82.30;;;;;;5899120;24;20248;-88
2022/08/17 03:23:19;;;;;;;19.52;17.15;;;23.70;82.30;;;;;;5893010;24;20561;-90
2022/08/17 03:25:49;;;;;;;19.15;16.58;;;23.60;82.30;;;;;;5867655;24;20549;-89
2022/08/17 03:28:21;;;;;;;19.70;16.63;;;23.70;82.40;;;;;;5822386;24;20201;-90
2022/08/17 03:30:52;;;;;;;18.67;16.38;;;23.60;82.30;;;;;;5867230;24;20162;-88
2022/08/17 03:33:23;;;;;;;19.90;17.45;;;23.60;83.10;;;;;;5876286;24;20566;-88
2022/08/17 03:35:55;;;;;;;18.58;16.58;;;23.60;82.40;;;;;;5887191;24;20157;-88
2022/08/17 03:38:23;;;;;;;19.23;16.95;;;23.60;82.40;;;;;;5958466;24;20220;-88
2022/08/17 03:40:56;;;;;;;19.67;17.52;;;23.60;82.40;;;;;;5957987;24;20167;-89
2022/08/17 03:43:27;;;;;;;20.10;17.48;;;23.60;82.40;;;;;;5958557;24;20296;-88
2022/08/17 03:56:55;;;;;;;18.60;16.58;;;23.60;82.40;;;;;;6083985;23;20156;-88
2022/08/17 03:59:25;;;;;;;19.77;17.10;;;23.60;82.50;;;;;;6125111;23;20531;-88
2022/08/17 04:01:55;;;;;;;18.25;16.25;;;23.50;82.40;;;;;;6145476;23;20150;-89
2022/08/17 04:04:28;;;;;;;19.02;16.88;;;23.60;82.50;;;;;;6171644;23;20154;-88
2022/08/17 04:06:59;;;;;;;19.05;16.77;;;23.60;82.50;;;;;;6172069;23;20260;-89
2022/08/17 04:09:30;;;;;;;19.63;16.60;;;23.60;82.50;;;;;;6171901;23;20177;-90
2022/08/17 04:12:08;;;;;;;19.17;16.55;;;23.60;82.50;;;;;;6172105;23;20149;-88
2022/08/17 04:14:37;;;;;;;18.67;16.48;;;23.60;82.50;;;;;;6136378;23;20151;-89
2022/08/17 04:17:05;;;;;;;18.55;16.55;;;23.60;82.50;;;;;;6106251;23;20161;-88
2022/08/17 04:19:33;;;;;;;19.77;16.92;;;23.60;82.50;;;;;;6106126;23;20205;-88
2022/08/17 04:21:59;;;;;;;19.00;16.80;;;23.50;82.40;;;;;;6082662;23;20166;-90
2022/08/17 04:24:26;;;;;;;19.45;16.80;;;23.50;82.40;;;;;;6077674;23;20285;-88
2022/08/17 04:26:56;;;;;;;18.20;16.25;;;23.60;82.50;;;;;;6100722;23;20272;-90
2022/08/17 04:29:25;;;;;;;18.83;16.27;;;23.60;82.50;;;;;;6124841;23;20234;-89
2022/08/17 04:31:58;;;;;;;19.05;16.73;;;23.50;82.50;;;;;;6101014;23;20183;-89
2022/08/17 04:34:33;;;;;;;20.35;17.65;;;23.50;82.60;;;;;;6100172;23;20214;-89
2022/08/17 04:37:14;;;;;;;19.73;17.17;;;23.60;82.70;;;;;;6062168;23;20153;-89
2022/08/17 04:43:03;;;;;;;17.60;15.65;;;23.60;82.60;;;;;;6046969;23;20153;-90
2022/08/17 04:45:33;;;;;;;18.77;16.77;;;23.60;83.40;;;;;;6081195;23;20737;-87
2022/08/17 04:48:09;;;;;;;19.05;16.83;;;23.50;82.60;;;;;;6125052;23;20183;-88
2022/08/17 04:50:47;;;;;;;18.38;16.23;;;23.50;82.70;;;;;;6095497;23;20156;-87
2022/08/17 04:53:16;;;;;;;19.30;16.52;;;23.50;82.70;;;;;;6095894;23;20156;-89
2022/08/17 04:55:42;;;;;;;19.20;16.75;;;23.50;82.70;;;;;;6038269;23;20147;-88
2022/08/17 04:58:18;;;;;;;18.65;15.95;;;23.50;82.80;;;;;;6007960;23;20203;-89
2022/08/17 05:00:49;;;;;;;18.40;16.00;;;23.50;82.80;;;;;;6009602;23;20221;-89
2022/08/17 05:03:17;;;;;;;19.05;16.60;;;23.60;82.80;;;;;;6009276;23;20155;-88
2022/08/17 05:05:48;;;;;;;18.13;16.17;;;23.60;82.90;;;;;;6009752;23;20618;-90
2022/08/17 05:08:17;;;;;;;18.60;16.40;;;23.60;83.50;;;;;;6061251;23;20251;-90
2022/08/17 05:10:46;;;;;;;18.60;16.35;;;23.70;83.10;;;;;;6014987;23;20150;-87
2022/08/17 05:13:29;;;;;;;18.65;16.65;;;23.60;83.40;;;;;;6037817;23;20158;-89
2022/08/17 05:16:03;;;;;;;19.05;16.02;;;23.70;83.30;;;;;;5996717;23;20158;-88
2022/08/17 05:18:35;;;;;;;17.15;15.25;;;23.70;84.10;;;;;;6037193;23;20671;-88
2022/08/17 05:21:08;;;;;;;19.02;16.33;;;23.70;83.80;;;;;;5991673;23;20206;-89
2022/08/17 05:23:37;;;;;;;17.88;15.40;;;23.70;84.00;;;;;;5986312;23;20579;-88
2022/08/17 05:26:08;;;;;;;18.00;15.60;;;23.80;84.50;;;;;;6023543;23;20208;-88
2022/08/17 05:28:40;;;;;;;16.73;14.88;;;23.80;84.60;;;;;;6041016;23;20182;-88
2022/08/17 05:31:11;;;;;;;16.67;14.85;;;23.80;84.60;;;;;;6083149;23;20627;-88
2022/08/17 05:33:45;;;;;;;18.00;16.10;;;23.80;84.80;;;;;;6093260;23;20507;-88
2022/08/17 05:36:19;;;;;;;17.98;16.08;;;23.70;84.80;;;;;;6053873;23;20196;-87
2022/08/17 05:38:46;;;;;;;18.25;16.25;;;23.80;85.00;;;;;;6053219;23;20156;-88
2022/08/17 05:41:17;;;;;;;17.95;16.05;;;23.80;85.10;;;;;;6096997;23;20455;-88
2022/08/17 05:43:42;;;;;;;19.40;16.27;;;23.70;85.50;;;;;;6111050;23;20164;-89
2022/08/17 05:46:22;;;;;;;17.52;15.38;;;23.60;85.80;;;;;;6164872;23;20266;-90
2022/08/17 05:48:53;;;;;;;19.98;17.20;;;23.60;86.40;;;;;;6100085;23;20179;-89
2022/08/17 05:51:38;;;;;;;18.33;16.33;;;23.60;86.60;;;;;;6076508;23;20196;-91
2022/08/17 05:54:44;;;;;;;17.38;15.50;;;23.50;87.10;;;;;;6078463;23;20608;-87
2022/08/17 05:57:33;;;;;;;19.10;16.63;;;23.60;87.40;;;;;;6116202;23;20240;-89
2022/08/17 06:00:22;;;;;;;20.42;17.48;;;23.60;86.90;;;;;;6055883;23;20257;-90
2022/08/17 06:03:16;;;;;;;18.80;15.93;;;23.60;87.10;;;;;;6098798;23;20179;-88
2022/08/17 06:06:09;;;;;;;19.58;16.40;;;23.50;86.90;;;;;;6079013;23;20610;-87
2022/08/17 06:08:52;;;;;;;18.48;16.35;;;23.50;87.60;;;;;;6104436;23;20182;-89
2022/08/17 06:11:28;;;;;;;18.60;16.45;;;23.60;87.40;;;;;;6058213;23;20475;-89
2022/08/17 06:14:14;;;;;;;18.85;16.05;;;23.50;87.40;;;;;;6130047;23;20151;-89
2022/08/17 06:16:43;;;;;;;19.83;17.60;;;23.70;87.20;;;;;;6131312;23;20147;-88
2022/08/17 06:19:29;;;;;;;19.88;17.23;;;23.70;86.90;;;;;;6129674;23;20182;-88
2022/08/17 06:21:55;;;;;;;18.63;16.63;;;23.60;87.20;;;;;;6107469;23;20571;-89
2022/08/17 06:24:33;;;;;;;18.60;16.38;;;23.60;86.70;;;;;;6124113;23;20230;-88
2022/08/17 06:27:25;;;;;;;19.02;16.63;;;23.60;86.80;;;;;;6116122;22;20149;-88
2022/08/17 06:30:03;;;;;;;18.08;15.93;;;23.70;86.40;;;;;;6160938;22;20211;-89
2022/08/17 06:32:30;;;;;;;19.08;16.38;;;23.70;86.90;;;;;;6199738;22;20495;-89
2022/08/17 06:34:57;;;;;;;19.05;16.80;;;23.70;86.30;;;;;;6198667;22;20160;-89
2022/08/17 06:37:32;;;;;;;18.85;15.95;;;23.70;86.00;;;;;;6198476;22;20160;-87
2022/08/17 06:40:11;;;;;;;18.30;16.27;;;23.70;86.00;;;;;;6198868;22;20155;-89
2022/08/17 06:42:55;;;;;;;18.25;16.02;;;23.70;86.70;;;;;;6150900;22;20187;-89
2022/08/17 07:03:47;;;;;;;;;;;;;;;;;;;;;
2022/08/17 09:47:46;;;;;;;18.90;15.90;;;24.00;85.50;;;;;;5844785;24;20173;-89
2022/08/17 09:51:12;;;;;;;17.55;15.35;;;24.00;85.40;;;;;;5805719;24;20606;-88
2022/08/17 12:48:48;;;;;;;14.88;13.30;;;24.80;71.00;;;;;;5486316;22;18953098;-89
2022/08/17 12:52:00;;;;;;;15.38;13.63;;;24.80;71.00;;;;;;6165623;23;20622;-90
2022/08/17 13:13:25;;;;;;;15.73;14.05;;;24.80;69.90;;;;;;5820041;24;20336;-90
2022/08/17 16:08:53;;;;;;;;;;;;;;;;;;;;;
2022/08/17 16:11:26;;;;;;;14.25;12.75;;;25.00;66.70;;;;;;6068552;23;20255;-87
2022/08/17 16:14:23;;;;;;;14.55;11.93;;;25.00;66.40;;;;;;6021804;23;20204;-86
2022/08/17 16:16:57;;;;;;;13.40;11.85;;;25.10;65.20;;;;;;5992393;23;20151;-88
2022/08/17 16:19:51;;;;;;;13.45;12.05;;;25.20;65.50;;;;;;5970935;23;20215;-87
2022/08/17 16:22:51;;;;;;;;;;;;;;;;;;;;;
2022/08/17 16:26:10;;;;;;;14.20;12.70;;;25.20;65.60;;;;;;5872172;24;20261;-87
2022/08/17 16:55:55;;;;;;;13.95;12.45;;;25.20;64.90;;;;;;5822204;24;20200;-86
2022/08/17 16:59:07;;;;;;;14.55;13.05;;;25.20;64.90;;;;;;5817435;24;20190;-86
2022/08/17 17:02:30;;;;;;;12.70;11.40;;;25.20;64.70;;;;;;5790597;24;20645;-85
2022/08/17 17:05:12;;;;;;;14.27;12.77;;;25.20;64.50;;;;;;5742126;24;20161;-87
2022/08/17 17:11:49;;;;;;;16.65;13.40;;;25.30;65.20;;;;;;5765110;24;20235;-87
2022/08/17 17:17:50;;;;;;;14.98;13.25;;;25.20;66.20;;;;;;5765599;24;20171;-88
2022/08/17 17:21:08;;;;;;;14.50;12.93;;;25.20;66.50;;;;;;5740286;25;20662;-87
2022/08/17 17:27:11;;;;;;;17.08;12.95;;;25.20;66.70;;;;;;5700516;25;20440;-88
2022/08/17 17:58:20;;;;;;;15.82;12.77;;;25.10;67.30;;;;;;6041520;23;20170;-85
2022/08/17 18:01:22;;;;;;;14.85;11.93;;;25.10;67.30;;;;;;6028046;23;20180;-85
2022/08/17 18:04:21;;;;;;;16.38;14.02;;;25.10;67.70;;;;;;6018973;23;20158;-84
2022/08/17 18:07:15;;;;;;;16.02;12.65;;;25.00;68.00;;;;;;5995295;23;20149;-85
2022/08/17 18:10:12;;;;;;;19.88;13.70;;;25.00;68.20;;;;;;6105464;23;20186;-86
2022/08/17 18:13:12;;;;;;;15.00;12.50;;;25.00;68.30;;;;;;6135062;23;20209;-86
2022/08/17 18:15:51;;;;;;;17.75;12.13;;;25.00;68.50;;;;;;6091552;23;20161;-86
2022/08/17 18:18:36;;;;;;;18.17;12.70;;;25.00;68.60;;;;;;6111698;23;20486;-86
2022/08/17 18:21:06;;;;;;;18.63;12.38;;;25.00;68.60;;;;;;6136645;23;20185;-86
2022/08/17 18:23:34;;;;;;;16.17;12.80;;;24.90;68.70;;;;;;6136690;23;20173;-86
2022/08/17 18:26:03;;;;;;;15.02;12.23;;;24.90;68.90;;;;;;6134686;23;20201;-86
2022/08/17 18:28:35;;;;;;;15.55;12.50;;;24.90;69.10;;;;;;6110721;23;20178;-86
2022/08/17 18:31:10;;;;;;;18.13;12.63;;;24.90;70.00;;;;;;6087070;23;20174;-86
2022/08/17 18:33:40;;;;;;;14.55;11.57;;;24.90;69.10;;;;;;6135413;23;20154;-85
2022/08/17 18:36:09;;;;;;;15.55;12.10;;;24.90;69.20;;;;;;6135542;23;20161;-86
2022/08/17 18:38:39;;;;;;;14.23;11.93;;;24.80;69.20;;;;;;6135737;23;20237;-86
2022/08/17 18:41:23;;;;;;;14.13;12.35;;;24.80;69.10;;;;;;6135224;23;20281;-86
2022/08/17 18:44:05;;;;;;;17.73;13.57;;;24.90;68.90;;;;;;6136425;23;20151;-86
2022/08/17 18:46:35;;;;;;;14.30;12.45;;;24.80;68.90;;;;;;6135805;23;20308;-86
2022/08/17 18:49:07;;;;;;;13.18;11.52;;;24.80;68.90;;;;;;6112556;23;20151;-86
2022/08/17 18:51:39;;;;;;;15.90;12.80;;;24.80;68.70;;;;;;6112225;23;20159;-86
2022/08/17 18:54:21;;;;;;;15.52;12.15;;;24.80;68.60;;;;;;6135693;23;20165;-86
2022/08/17 18:56:57;;;;;;;14.40;11.75;;;24.80;68.50;;;;;;6160427;23;20478;-86
2022/08/17 18:59:25;;;;;;;16.60;12.65;;;24.90;68.40;;;;;;6111309;23;20158;-86
2022/08/17 19:02:16;;;;;;;13.75;12.15;;;24.80;68.30;;;;;;6138689;23;20171;-86
2022/08/17 19:04:57;;;;;;;17.48;13.45;;;24.90;68.40;;;;;;6134819;23;20223;-87
2022/08/17 19:07:28;;;;;;;16.33;13.02;;;24.80;68.60;;;;;;6160405;23;20127;-86
2022/08/17 19:09:58;;;;;;;14.85;12.85;;;24.80;68.80;;;;;;6130235;23;20170;-86
2022/08/17 19:12:47;;;;;;;16.90;13.77;;;24.70;69.00;;;;;;6105848;23;20179;-86
2022/08/17 19:15:23;;;;;;;15.27;13.57;;;24.70;69.30;;;;;;6155017;23;20192;-86
2022/08/17 19:17:59;;;;;;;16.05;14.20;;;24.70;69.20;;;;;;6108754;23;20550;-86
2022/08/17 19:20:33;;;;;;;14.57;12.77;;;24.70;69.40;;;;;;6108193;23;20238;-86
2022/08/17 19:23:26;;;;;;;16.35;13.43;;;24.70;69.60;;;;;;6106986;23;20257;-86
2022/08/17 19:25:57;;;;;;;16.52;13.52;;;24.70;69.80;;;;;;6154759;23;20154;-86
2022/08/17 19:28:26;;;;;;;14.50;13.00;;;24.60;70.00;;;;;;6106274;23;20151;-87
2022/08/17 19:31:02;;;;;;;15.10;13.07;;;24.60;70.00;;;;;;6130997;23;20132;-86
2022/08/17 19:33:30;;;;;;;14.75;13.05;;;24.60;70.10;;;;;;6130678;23;20174;-86
2022/08/17 19:36:06;;;;;;;14.75;13.13;;;24.60;70.30;;;;;;6081340;23;20155;-86
2022/08/17 19:38:39;;;;;;;15.40;13.35;;;24.60;70.50;;;;;;6131042;23;20184;-86
2022/08/17 19:41:12;;;;;;;14.55;12.90;;;24.60;70.70;;;;;;6106343;23;20201;-86
2022/08/17 19:44:06;;;;;;;15.55;12.73;;;24.60;70.90;;;;;;6105877;23;20588;-86
2022/08/17 19:46:48;;;;;;;14.05;12.25;;;24.50;71.10;;;;;;6084885;23;20151;-87
2022/08/17 19:49:33;;;;;;;14.40;12.90;;;24.60;71.40;;;;;;6132507;23;20140;-86
2022/08/17 19:52:30;;;;;;;14.35;12.85;;;24.50;71.40;;;;;;6154999;23;20471;-86
2022/08/17 19:55:08;;;;;;;13.77;12.27;;;24.50;71.80;;;;;;6087097;23;20163;-86
2022/08/17 19:57:50;;;;;;;13.85;12.23;;;24.50;72.10;;;;;;6131964;23;20599;-87
2022/08/17 20:00:18;;;;;;;13.73;11.82;;;24.40;72.30;;;;;;6106066;23;20159;-86
2022/08/17 20:02:54;;;;;;;15.93;13.75;;;24.40;72.50;;;;;;6080337;23;20275;-86
2022/08/17 20:05:25;;;;;;;14.88;12.98;;;24.40;72.50;;;;;;6106737;23;20598;-86
2022/08/17 20:08:03;;;;;;;13.93;12.43;;;24.40;72.80;;;;;;6109386;23;20190;-86
2022/08/17 20:10:38;;;;;;;15.07;13.48;;;24.40;72.90;;;;;;6134976;23;20208;-86
2022/08/17 20:13:10;;;;;;;14.38;12.88;;;24.30;73.20;;;;;;6135401;23;20488;-86
2022/08/17 20:15:39;;;;;;;14.02;12.63;;;24.30;73.60;;;;;;6110946;23;20181;-87
2022/08/17 20:18:13;;;;;;;15.07;12.93;;;24.20;73.80;;;;;;6134010;23;20237;-86
2022/08/17 20:20:50;;;;;;;15.77;12.95;;;24.20;74.10;;;;;;6159937;23;20148;-86
2022/08/17 20:23:31;;;;;;;14.52;12.98;;;24.20;74.20;;;;;;6159897;23;20157;-85
2022/08/17 20:26:26;;;;;;;15.02;12.90;;;24.10;74.30;;;;;;6159902;23;20130;-86
2022/08/17 20:29:21;;;;;;;15.63;13.52;;;24.10;74.60;;;;;;6159683;23;20154;-85
2022/08/17 20:32:12;;;;;;;14.52;12.48;;;24.10;74.70;;;;;;6134643;23;20467;-85
2022/08/17 20:34:38;;;;;;;13.98;12.30;;;24.10;75.00;;;;;;6165445;23;20193;-85
2022/08/17 20:37:09;;;;;;;14.25;12.75;;;24.10;75.10;;;;;;6135386;23;20154;-86
2022/08/17 20:39:49;;;;;;;14.27;12.77;;;24.10;75.20;;;;;;6134844;23;20154;-87
2022/08/17 20:42:32;;;;;;;14.77;13.18;;;24.10;75.20;;;;;;6162227;23;20598;-86
2022/08/17 20:45:03;;;;;;;14.65;12.57;;;24.00;75.20;;;;;;6185996;23;20210;-86
2022/08/17 20:47:41;;;;;;;15.02;13.43;;;24.10;75.20;;;;;;6135808;23;20151;-86
2022/08/17 20:50:10;;;;;;;15.95;13.68;;;24.10;75.00;;;;;;6159335;23;20146;-85
2022/08/17 20:52:52;;;;;;;17.77;15.00;;;24.10;74.90;;;;;;6134624;23;20182;-86
2022/08/17 20:55:48;;;;;;;17.60;15.13;;;24.10;74.70;;;;;;6159777;23;20139;-85
2022/08/17 20:58:35;;;;;;;18.98;16.02;;;24.10;74.60;;;;;;6135245;23;20160;-86
2022/08/17 21:01:19;;;;;;;16.88;14.80;;;24.10;74.50;;;;;;6159470;23;20166;-86
2022/08/17 21:03:47;;;;;;;17.73;15.60;;;24.10;74.40;;;;;;6135046;23;20157;-86
2022/08/17 21:06:16;;;;;;;17.02;15.00;;;24.10;74.20;;;;;;6134315;23;20177;-86
2022/08/17 21:08:57;;;;;;;16.30;14.60;;;24.20;74.20;;;;;;6085912;23;20190;-86
2022/08/17 21:11:44;;;;;;;17.75;15.30;;;24.20;74.20;;;;;;6135800;23;20586;-86
2022/08/17 21:14:28;;;;;;;18.35;15.77;;;24.20;74.30;;;;;;6159194;23;20154;-86
2022/08/17 21:17:30;;;;;;;18.55;16.55;;;24.30;74.20;;;;;;6135329;23;20190;-86
2022/08/17 21:20:10;;;;;;;17.40;15.50;;;24.30;74.20;;;;;;6167337;23;20169;-86
2022/08/17 21:23:06;;;;;;;17.63;15.52;;;24.20;74.20;;;;;;6138645;23;20182;-85
2022/08/17 21:26:01;;;;;;;18.08;15.70;;;24.20;74.10;;;;;;6159258;23;20128;-86
2022/08/17 21:28:53;;;;;;;19.63;17.17;;;24.20;74.20;;;;;;6116444;23;20537;-86
2022/08/17 21:31:34;;;;;;;18.38;15.80;;;24.20;74.10;;;;;;6163748;23;20213;-86
2022/08/17 21:34:21;;;;;;;19.45;16.67;;;24.20;74.10;;;;;;6159420;23;20185;-86
2022/08/17 21:36:47;;;;;;;19.40;16.92;;;24.20;74.10;;;;;;6159547;23;20586;-86
2022/08/17 21:39:15;;;;;;;20.75;17.40;;;24.20;74.20;;;;;;6134477;23;20158;-85
2022/08/17 21:41:53;;;;;;;19.65;17.13;;;24.20;74.10;;;;;;6159318;23;20594;-86
2022/08/17 21:44:29;;;;;;;19.10;16.17;;;24.20;74.10;;;;;;6160850;23;20138;-86
2022/08/17 21:47:10;;;;;;;20.95;16.98;;;24.20;74.10;;;;;;6136652;23;20250;-85
2022/08/17 21:49:35;;;;;;;20.20;17.63;;;24.20;74.10;;;;;;6161090;23;20137;-86
2022/08/17 21:52:02;;;;;;;19.10;16.20;;;24.20;74.10;;;;;;6161200;23;20147;-87
2022/08/17 21:54:35;;;;;;;19.35;17.17;;;24.20;74.10;;;;;;6161139;23;20138;-86
2022/08/17 21:57:03;;;;;;;18.95;16.67;;;24.20;74.10;;;;;;6161479;23;20132;-86
2022/08/17 21:59:31;;;;;;;20.00;17.10;;;24.10;74.10;;;;;;6161089;23;20217;-86
2022/08/17 22:01:59;;;;;;;17.63;15.65;;;24.20;74.00;;;;;;6160805;23;20202;-86
2022/08/17 22:04:30;;;;;;;18.67;16.58;;;24.20;73.90;;;;;;6136502;23;20637;-86
2022/08/17 22:06:58;;;;;;;18.65;16.42;;;24.20;73.80;;;;;;6161096;23;20571;-87
2022/08/17 22:09:28;;;;;;;19.92;17.33;;;24.20;73.80;;;;;;6161070;23;20630;-86
2022/08/17 22:12:00;;;;;;;19.90;16.63;;;24.10;73.70;;;;;;6187224;23;20134;-86
2022/08/17 22:14:35;;;;;;;22.20;17.70;;;24.20;73.70;;;;;;6161237;23;20147;-86
2022/08/17 22:17:23;;;;;;;19.67;17.02;;;24.20;73.60;;;;;;6136226;23;20153;-86
2022/08/17 22:19:55;;;;;;;19.90;16.83;;;24.20;73.60;;;;;;6165275;23;20171;-86
2022/08/17 22:22:27;;;;;;;18.17;15.75;;;24.20;73.70;;;;;;6160900;23;20167;-86
2022/08/17 22:24:55;;;;;;;21.30;17.85;;;24.20;73.70;;;;;;6160867;23;20131;-86
2022/08/17 22:27:21;;;;;;;20.65;17.60;;;24.20;73.80;;;;;;6136882;23;20146;-86
2022/08/17 22:29:52;;;;;;;19.70;16.83;;;24.20;73.80;;;;;;6136507;23;20593;-86
2022/08/17 22:32:36;;;;;;;19.90;16.98;;;24.20;73.90;;;;;;6111691;23;20637;-86
2022/08/17 22:35:25;;;;;;;20.25;17.45;;;24.20;73.80;;;;;;6136803;23;20187;-86
2022/08/17 22:37:52;;;;;;;20.60;17.55;;;24.20;73.80;;;;;;6136753;23;20234;-86
2022/08/17 22:40:29;;;;;;;19.70;16.92;;;24.30;73.80;;;;;;6110863;23;20545;-86
2022/08/17 22:42:56;;;;;;;20.75;17.73;;;24.20;73.70;;;;;;6136306;23;20571;-86
2022/08/17 22:45:24;;;;;;;19.70;16.98;;;24.20;73.70;;;;;;6135274;23;20155;-86
2022/08/17 22:47:54;;;;;;;21.27;17.75;;;24.20;73.70;;;;;;6110962;23;20189;-87
2022/08/17 22:50:23;;;;;;;19.67;17.27;;;24.20;73.70;;;;;;6111100;23;20154;-86
2022/08/17 23:01:27;;;;;;;19.50;17.33;;;24.20;73.70;;;;;;6163635;23;20171;-86
2022/08/17 23:03:58;;;;;;;20.45;17.63;;;24.10;73.70;;;;;;6160494;23;20143;-85
2022/08/17 23:06:24;;;;;;;20.83;17.55;;;24.20;73.80;;;;;;6135632;23;20146;-85
2022/08/17 23:08:55;;;;;;;20.45;17.60;;;24.20;73.80;;;;;;6160270;23;20609;-86
2022/08/17 23:11:24;;;;;;;19.42;16.90;;;24.20;73.80;;;;;;6112210;23;20205;-85
2022/08/17 23:13:55;;;;;;;20.63;17.70;;;24.20;73.80;;;;;;6110541;23;20155;-86
2022/08/17 23:16:23;;;;;;;19.90;17.33;;;24.20;73.90;;;;;;6135730;23;20162;-87
2022/08/17 23:18:50;;;;;;;20.70;17.80;;;24.20;74.00;;;;;;6110346;23;20159;-86
2022/08/17 23:21:20;;;;;;;20.63;17.88;;;24.20;74.00;;;;;;6110532;23;20257;-86
2022/08/17 23:23:48;;;;;;;20.42;17.90;;;24.20;73.90;;;;;;6111542;23;20151;-86
2022/08/17 23:26:17;;;;;;;21.60;17.63;;;24.20;73.80;;;;;;6135280;23;20660;-86
2022/08/17 23:28:44;;;;;;;20.00;17.33;;;24.10;73.80;;;;;;6086783;23;20147;-86
2022/08/17 23:31:12;;;;;;;19.30;16.75;;;24.10;74.00;;;;;;6085854;23;20165;-86
2022/08/17 23:33:38;;;;;;;19.15;16.70;;;24.10;73.90;;;;;;6110051;23;20162;-86
2022/08/17 23:36:05;;;;;;;20.63;17.85;;;24.10;73.90;;;;;;6160110;23;20528;-86
2022/08/17 23:38:32;;;;;;;20.10;17.52;;;24.10;74.00;;;;;;6160098;23;20578;-86
2022/08/17 23:41:04;;;;;;;20.50;17.35;;;24.10;73.90;;;;;;6160267;23;20142;-87
2022/08/17 23:43:31;;;;;;;20.73;17.75;;;24.10;73.80;;;;;;6087877;23;20479;-85
2022/08/17 23:45:59;;;;;;;22.42;18.08;;;24.10;74.00;;;;;;6110389;23;20591;-86
2022/08/17 23:48:26;;;;;;;20.67;17.63;;;24.10;74.00;;;;;;6110522;23;20176;-86